Time;durP1;ratioP1;P1;durP2;ratioP2;P2;SDS_P1;SDS_P2;PMS_P1;PMS_P2;Temp;Humidity;BMP_temperature;BMP_pressure;BME280_temperature;BME280_humidity;BME280_pressure;Samples;Min_cycle;Max_cycle;Signal;HPM_P1;HPM_P2
2021/07/11 00:02:15;;;;;;;4.97;3.22;;;;;;;17.52;100.00;100792.06;1669983;85;21022;-45
2021/07/11 00:04:41;;;;;;;6.90;3.40;;;;;;;17.49;100.00;100792.14;1679299;85;21022;-44
2021/07/11 00:07:11;;;;;;;4.78;3.15;;;;;;;17.47;100.00;100787.48;1670017;84;21074;-50
2021/07/11 00:09:35;;;;;;;6.78;3.35;;;;;;;17.46;100.00;100790.02;1678969;85;21023;-44
2021/07/11 00:12:03;;;;;;;4.75;3.27;;;;;;;17.44;100.00;100783.98;1671159;84;20888;-43
2021/07/11 00:14:29;;;;;;;5.80;3.62;;;;;;;17.46;100.00;100784.49;1679219;85;21030;-44
2021/07/11 00:16:57;;;;;;;5.50;2.70;;;;;;;17.49;100.00;100783.84;1671764;84;21010;-44
2021/07/11 00:19:23;;;;;;;4.33;3.12;;;;;;;17.51;100.00;100780.20;1682163;84;21462;-44
2021/07/11 00:21:50;;;;;;;3.47;2.95;;;;;;;17.51;100.00;100780.20;1706381;83;21570;-45
2021/07/11 00:24:16;;;;;;;6.28;3.20;;;;;;;17.52;100.00;100777.68;1706780;83;21036;-43
2021/07/11 00:26:42;;;;;;;5.58;3.17;;;;;;;17.53;100.00;100783.47;1706191;83;21016;-44
2021/07/11 00:29:09;;;;;;;8.45;3.12;;;;;;;17.53;100.00;100779.87;1706872;83;21044;-50
2021/07/11 00:31:35;;;;;;;5.95;3.47;;;;;;;17.52;100.00;100783.20;1711989;83;21457;-43
2021/07/11 00:34:02;;;;;;;4.97;2.83;;;;;;;17.50;100.00;100792.95;1722314;82;21110;-49
2021/07/11 00:36:28;;;;;;;3.75;3.12;;;;;;;17.43;100.00;100791.20;1708607;83;21014;-44
2021/07/11 00:38:56;;;;;;;7.42;3.37;;;;;;;17.37;100.00;100787.77;1665359;85;21027;-50
2021/07/11 00:41:23;;;;;;;5.83;3.75;;;;;;;17.33;100.00;100790.36;1726220;82;21014;-50
2021/07/11 00:43:49;;;;;;;5.20;3.05;;;;;;;17.33;100.00;100789.52;1728548;81;20967;-45
2021/07/11 00:46:17;;;;;;;6.60;3.20;;;;;;;17.32;100.00;100785.14;1757220;81;21570;-44
2021/07/11 00:48:45;;;;;;;4.58;2.90;;;;;;;17.32;100.00;100783.77;1757365;81;21468;-49
2021/07/11 00:51:11;;;;;;;6.42;3.20;;;;;;;17.33;100.00;100781.23;1754632;81;20991;-44
2021/07/11 00:53:51;;;;;;;4.92;3.25;;;;;;;17.32;100.00;100782.37;1662607;84;20990;-49
2021/07/11 00:56:19;;;;;;;8.20;3.98;;;;;;;17.31;100.00;100778.81;1645090;86;21424;-44
2021/07/11 00:58:46;;;;;;;4.70;3.05;;;;;;;17.28;100.00;100781.38;1675697;83;21443;-44
2021/07/11 01:01:22;;;;;;;4.42;2.62;;;;;;;17.25;100.00;100774.53;1700213;84;20949;-45
2021/07/11 01:03:51;;;;;;;5.45;2.90;;;;;;;17.20;100.00;100776.05;1700730;84;20997;-44
2021/07/11 01:06:18;;;;;;;4.92;3.22;;;;;;;17.14;100.00;100776.77;1700778;84;20999;-49
2021/07/11 01:08:55;;;;;;;10.50;3.25;;;;;;;17.09;100.00;100768.61;1678430;84;21065;-49
2021/07/11 01:11:24;;;;;;;7.45;2.90;;;;;;;17.06;100.00;100769.25;1700410;83;21034;-45
2021/07/11 01:13:56;;;;;;;4.40;2.70;;;;;;;17.00;100.00;100766.35;1679762;84;21014;-44
2021/07/11 01:16:27;;;;;;;4.03;3.22;;;;;;;16.97;100.00;100771.12;1700809;83;21003;-45
2021/07/11 01:19:13;;;;;;;7.08;4.00;;;;;;;16.92;100.00;100758.84;1699147;84;21015;-49
2021/07/11 01:21:45;;;;;;;4.75;3.20;;;;;;;16.90;100.00;100759.71;1700786;83;20999;-49
2021/07/11 01:24:26;;;;;;;4.25;3.12;;;;;;;16.85;100.00;100762.60;1678465;84;21480;-49
2021/07/11 01:26:54;;;;;;;6.55;3.70;;;;;;;16.80;100.00;100764.11;1677645;84;21019;-45
2021/07/11 01:29:23;;;;;;;4.50;2.85;;;;;;;16.77;100.00;100766.33;1679953;84;21161;-45
2021/07/11 01:31:49;;;;;;;4.72;3.45;;;;;;;16.77;100.00;100764.14;1728112;82;21011;-49
2021/07/11 01:34:18;;;;;;;5.60;3.00;;;;;;;16.77;100.00;100769.09;1680280;84;21014;-43
2021/07/11 01:36:44;;;;;;;5.70;2.80;;;;;;;16.75;100.00;100765.83;1649533;85;21058;-49
2021/07/11 01:39:12;;;;;;;5.65;3.08;;;;;;;16.72;100.00;100769.22;1670105;85;21010;-49
2021/07/11 01:41:41;;;;;;;6.15;2.58;;;;;;;16.69;100.00;100765.71;1670189;84;21475;-44
2021/07/11 01:44:09;;;;;;;4.17;2.67;;;;;;;16.66;100.00;100768.27;1640752;85;21066;-44
2021/07/11 01:46:37;;;;;;;3.85;2.90;;;;;;;16.62;100.00;100759.81;1739970;81;20994;-43
2021/07/11 01:49:04;;;;;;;4.53;2.87;;;;;;;16.62;100.00;100773.60;1730697;81;21050;-49
2021/07/11 01:51:31;;;;;;;5.60;3.85;;;;;;;16.60;100.00;100762.06;1761374;81;21927;-43
2021/07/11 01:53:59;;;;;;;7.78;3.95;;;;;;;16.62;100.00;100759.00;1757154;81;20903;-44
2021/07/11 01:56:26;;;;;;;7.45;3.40;;;;;;;16.62;100.00;100765.33;1756704;80;21456;-44
2021/07/11 01:58:52;;;;;;;9.95;5.37;;;;;;;16.63;100.00;100766.94;1757642;81;21481;-46
2021/07/11 02:01:20;;;;;;;8.03;4.12;;;;;;;16.64;100.00;100774.11;1757194;81;20987;-44
2021/07/11 02:03:48;;;;;;;7.33;4.15;;;;;;;16.66;100.00;100773.78;1756923;81;21512;-49
2021/07/11 02:06:15;;;;;;;6.42;4.12;;;;;;;16.67;100.00;100775.43;1757329;81;21042;-49
2021/07/11 02:08:44;;;;;;;7.70;4.03;;;;;;;16.66;100.00;100773.20;1756888;81;21516;-43
2021/07/11 02:11:13;;;;;;;5.42;2.90;;;;;;;16.66;100.00;100769.64;1735748;81;21040;-49
2021/07/11 02:13:53;;;;;;;6.17;3.98;;;;;;;16.66;100.00;100773.20;1756566;81;21027;-49
2021/07/11 02:16:27;;;;;;;6.00;3.45;;;;;;;16.65;100.00;100769.41;1741315;81;21006;-48
2021/07/11 02:18:56;;;;;;;5.62;3.72;;;;;;;16.61;100.00;100766.44;1727145;82;21026;-49
2021/07/11 02:21:26;;;;;;;4.30;3.02;;;;;;;16.60;100.00;100773.09;1672490;84;21444;-49
2021/07/11 02:23:54;;;;;;;6.60;3.37;;;;;;;16.60;100.00;100773.09;1679820;84;21027;-50
2021/07/11 02:26:21;;;;;;;4.90;3.10;;;;;;;16.56;100.00;100774.83;1651358;84;21968;-49
2021/07/11 02:28:52;;;;;;;4.45;3.22;;;;;;;16.54;100.00;100766.05;1690327;84;20999;-45
2021/07/11 02:31:21;;;;;;;6.33;4.25;;;;;;;16.54;100.00;100779.30;1690114;84;20958;-49
2021/07/11 02:33:47;;;;;;;7.03;2.70;;;;;;;16.58;100.00;100775.91;1690121;84;21015;-43
2021/07/11 02:36:21;;;;;;;4.22;2.33;;;;;;;16.60;100.00;100775.85;1670123;84;20997;-49
2021/07/11 02:38:56;;;;;;;3.62;2.60;;;;;;;16.65;100.00;100769.41;1690196;84;21021;-49
2021/07/11 02:41:24;;;;;;;3.58;2.58;;;;;;;16.70;100.00;100776.98;1694536;84;20963;-44
2021/07/11 02:43:53;;;;;;;5.03;3.00;;;;;;;16.78;100.00;100778.20;1672368;83;21448;-44
2021/07/11 02:46:27;;;;;;;4.33;3.12;;;;;;;16.85;100.00;100780.54;1694851;83;21062;-49
2021/07/11 02:48:54;;;;;;;6.50;3.55;;;;;;;16.90;100.00;100779.84;1694674;84;21033;-49
2021/07/11 02:51:24;;;;;;;6.72;4.00;;;;;;;16.98;100.00;100787.36;1690314;83;21046;-44
2021/07/11 02:53:56;;;;;;;6.50;4.12;;;;;;;17.08;100.00;100783.52;1695614;83;21049;-44
2021/07/11 02:56:22;;;;;;;8.73;4.78;;;;;;;17.18;100.00;100781.07;1776174;80;21077;-49
2021/07/11 02:58:51;;;;;;;6.28;3.52;;;;;;;17.26;100.00;100782.25;1774657;80;20998;-49
2021/07/11 03:01:18;;;;;;;5.60;3.80;;;;;;;17.32;100.00;100780.42;1765593;81;21030;-44
2021/07/11 03:03:47;;;;;;;8.63;3.80;;;;;;;17.43;100.00;100785.67;1769374;81;20991;-49
2021/07/11 03:06:16;;;;;;;6.40;4.40;;;;;;;17.54;100.00;100786.47;1765759;81;21058;-49
2021/07/11 03:08:44;;;;;;;9.95;6.55;;;;;;;17.65;100.00;100782.04;1765678;81;20895;-49
2021/07/11 03:11:13;;;;;;;11.80;8.15;;;;;;;17.76;100.00;100786.16;1764681;80;21517;-49
2021/07/11 03:13:42;;;;;;;8.08;5.10;;;;;;;17.87;100.00;100781.98;1748609;81;20990;-43
2021/07/11 03:16:10;;;;;;;7.78;4.22;;;;;;;17.98;100.00;100783.33;1688149;84;21046;-49
2021/07/11 03:18:40;;;;;;;5.58;3.52;;;;;;;18.09;100.00;100784.41;1713871;82;21318;-44
2021/07/11 03:21:08;;;;;;;4.40;3.12;;;;;;;18.21;100.00;100781.84;1643392;85;21022;-49
2021/07/11 03:23:36;;;;;;;6.97;3.70;;;;;;;18.36;100.00;100779.98;1735393;82;21041;-48
2021/07/11 03:26:03;;;;;;;9.90;5.05;;;;;;;18.53;100.00;100781.14;1665965;85;21053;-49
2021/07/11 03:28:30;;;;;;;4.87;3.67;;;;;;;18.67;100.00;100780.42;1736428;82;21060;-43
2021/07/11 03:30:57;;;;;;;7.20;4.08;;;;;;;18.80;100.00;100774.49;1745785;82;21007;-49
2021/07/11 03:33:25;;;;;;;6.08;3.75;;;;;;;18.92;100.00;100770.49;1721261;82;21055;-44
2021/07/11 03:35:58;;;;;;;6.92;4.50;;;;;;;19.05;100.00;100779.17;1714023;83;21037;-43
2021/07/11 03:38:39;;;;;;;6.22;4.70;;;;;;;19.19;100.00;100773.45;1702116;83;21051;-49
2021/07/11 03:41:06;;;;;;;7.35;4.70;;;;;;;19.36;100.00;100778.69;1722629;82;21020;-44
2021/07/11 03:43:36;;;;;;;5.90;4.40;;;;;;;19.50;100.00;100773.75;1727368;82;21402;-49
2021/07/11 03:46:02;;;;;;;8.70;4.62;;;;;;;19.61;100.00;100772.25;1727616;82;21375;-44
2021/07/11 03:48:51;;;;;;;7.85;5.12;;;;;;;19.77;100.00;100766.98;1712923;80;21485;-50
2021/07/11 03:51:31;;;;;;;6.85;4.75;;;;;;;19.96;100.00;100762.41;1737379;81;21034;-49
2021/07/11 03:53:57;;;;;;;9.38;4.45;;;;;;;20.17;100.00;100772.13;1735540;81;20999;-44
2021/07/11 03:56:27;;;;;;;5.17;3.65;;;;;;;20.32;100.00;100766.56;1699393;84;21033;-44
2021/07/11 03:58:57;;;;;;;8.13;4.67;;;;;;;20.46;100.00;100767.11;1692345;83;21082;-45
2021/07/11 04:01:25;;;;;;;6.40;4.00;;;;;;;20.58;100.00;100764.44;1703555;84;21023;-44
2021/07/11 04:03:52;;;;;;;7.45;4.62;;;;;;;20.72;100.00;100763.33;1695945;84;21026;-44
2021/07/11 04:06:19;;;;;;;9.08;4.72;;;;;;;20.87;100.00;100768.27;1671325;84;21086;-44
2021/07/11 04:08:46;;;;;;;8.60;4.33;;;;;;;21.02;100.00;100763.45;1699760;84;21033;-45
2021/07/11 04:11:12;;;;;;;6.78;4.20;;;;;;;21.15;99.29;100762.11;1727977;83;20978;-44
2021/07/11 04:13:41;;;;;;;7.62;4.87;;;;;;;21.29;98.70;100759.83;1728047;82;20969;-49
2021/07/11 04:16:08;;;;;;;10.85;5.25;;;;;;;21.43;97.81;100757.55;1702099;82;21873;-50
2021/07/11 04:18:45;;;;;;;5.92;4.33;;;;;;;21.53;96.78;100758.25;1689986;84;21400;-47
2021/07/11 04:21:12;;;;;;;8.00;5.15;;;;;;;21.63;96.04;100751.65;1681292;84;21058;-45
2021/07/11 04:23:39;;;;;;;6.35;4.30;;;;;;;21.77;95.03;100754.68;1681284;84;21010;-45
2021/07/11 04:26:06;;;;;;;6.00;4.10;;;;;;;21.89;94.72;100753.28;1708661;84;21030;-45
2021/07/11 04:28:36;;;;;;;8.38;4.33;;;;;;;22.03;93.83;100757.08;1720830;83;21014;-50
2021/07/11 04:31:04;;;;;;;7.62;4.90;;;;;;;22.14;92.95;100756.05;1709260;83;20994;-50
2021/07/11 04:33:31;;;;;;;6.70;4.70;;;;;;;22.27;92.27;100758.47;1684773;83;21026;-45
2021/07/11 04:35:58;;;;;;;7.05;4.40;;;;;;;22.39;91.65;100759.61;1680208;85;21050;-44
2021/07/11 04:38:25;;;;;;;5.72;3.98;;;;;;;22.50;90.79;100753.77;1680062;85;21030;-49
2021/07/11 04:40:52;;;;;;;9.05;4.83;;;;;;;22.63;90.25;100753.16;1680245;85;20935;-44
2021/07/11 04:43:18;;;;;;;8.73;5.12;;;;;;;22.75;89.17;100756.70;1686802;84;21506;-49
2021/07/11 04:45:45;;;;;;;9.55;5.28;;;;;;;22.89;88.02;100762.44;1736900;81;21002;-49
2021/07/11 04:48:12;;;;;;;7.33;3.70;;;;;;;23.04;87.54;100758.91;1741098;81;20979;-44
2021/07/11 04:50:38;;;;;;;4.90;3.47;;;;;;;23.17;86.62;100757.69;1763780;81;20979;-49
2021/07/11 04:53:06;;;;;;;6.75;4.62;;;;;;;23.30;86.18;100761.80;1757429;81;21038;-44
2021/07/11 04:55:33;;;;;;;6.30;3.55;;;;;;;23.40;85.46;100753.70;1697617;83;21477;-44
2021/07/11 04:57:59;;;;;;;7.78;4.40;;;;;;;23.51;85.14;100753.16;1702487;83;21101;-50
2021/07/11 05:00:26;;;;;;;7.72;4.78;;;;;;;23.63;84.51;100755.05;1662311;83;21052;-44
2021/07/11 05:02:52;;;;;;;6.60;4.50;;;;;;;23.76;84.04;100759.37;1702516;84;21046;-50
2021/07/11 05:05:18;;;;;;;9.55;4.45;;;;;;;23.92;83.68;100753.20;1726056;82;21452;-49
2021/07/11 05:07:45;;;;;;;8.10;4.17;;;;;;;24.10;82.44;100753.60;1694411;83;21082;-49
2021/07/11 05:10:11;;;;;;;6.60;4.22;;;;;;;24.29;81.34;100751.44;1680039;83;21527;-45
2021/07/11 05:12:38;;;;;;;5.28;3.60;;;;;;;24.44;79.48;100747.77;1724754;83;21006;-50
2021/07/11 05:15:06;;;;;;;9.90;4.67;;;;;;;24.63;78.31;100747.61;1690006;83;21034;-50
2021/07/11 05:17:33;;;;;;;5.55;3.50;;;;;;;24.78;77.39;100748.11;1694401;84;21515;-50
2021/07/11 05:19:59;;;;;;;7.55;4.50;;;;;;;24.95;76.18;100749.64;1752782;81;21055;-50
2021/07/11 05:22:26;;;;;;;8.43;4.47;;;;;;;25.10;75.64;100758.50;1735739;81;21527;-44
2021/07/11 05:24:53;;;;;;;5.80;4.05;;;;;;;25.24;75.39;100755.77;1736464;81;20986;-50
2021/07/11 05:27:19;;;;;;;5.62;4.25;;;;;;;25.38;74.87;100760.23;1688541;83;21109;-45
2021/07/11 05:29:45;;;;;;;4.55;3.33;;;;;;;25.52;74.67;100757.68;1690834;84;21405;-50
2021/07/11 05:32:13;;;;;;;4.83;3.65;;;;;;;25.67;74.01;100760.13;1670268;84;21625;-45
2021/07/11 05:34:39;;;;;;;4.47;3.52;;;;;;;25.86;72.72;100757.03;1683919;82;21015;-50
2021/07/11 05:37:06;;;;;;;5.17;3.35;;;;;;;26.02;71.22;100764.70;1690573;84;21077;-50
2021/07/11 05:39:32;;;;;;;4.65;3.60;;;;;;;26.10;69.98;100774.80;1685846;84;21540;-50
2021/07/11 05:41:59;;;;;;;5.45;3.17;;;;;;;26.15;69.32;100768.08;1687549;85;21031;-50
2021/07/11 05:44:26;;;;;;;4.72;3.55;;;;;;;26.20;70.08;100766.34;1708993;83;21445;-45
2021/07/11 05:46:54;;;;;;;3.55;2.62;;;;;;;26.27;68.67;100768.45;1708465;82;21058;-50
2021/07/11 05:49:20;;;;;;;4.30;3.15;;;;;;;26.26;66.92;100772.42;1677471;84;21026;-45
2021/07/11 05:51:47;;;;;;;4.60;3.10;;;;;;;26.27;66.38;100764.25;1727668;81;21030;-45
2021/07/11 05:54:13;;;;;;;4.95;3.00;;;;;;;26.38;67.37;100765.18;1735110;81;21050;-50
2021/07/11 05:56:39;;;;;;;3.37;3.00;;;;;;;26.52;65.83;100769.58;1729470;81;22318;-49
2021/07/11 05:59:06;;;;;;;2.67;2.47;;;;;;;26.63;65.49;100773.14;1738465;80;21549;-45
2021/07/11 06:01:32;;;;;;;5.87;2.90;;;;;;;26.74;65.25;100773.49;1729907;81;21025;-44
2021/07/11 06:04:00;;;;;;;3.83;2.90;;;;;;;26.80;65.01;100771.98;1740340;81;20985;-45
2021/07/11 06:06:27;;;;;;;4.20;2.77;;;;;;;26.94;64.68;100770.52;1730151;81;21385;-45
2021/07/11 06:08:54;;;;;;;3.58;2.80;;;;;;;27.10;64.18;100764.66;1756950;80;21007;-50
2021/07/11 06:11:20;;;;;;;2.83;2.47;;;;;;;27.27;63.15;100769.67;1756977;80;20995;-44
2021/07/11 06:13:46;;;;;;;4.83;3.05;;;;;;;27.43;62.25;100763.83;1752120;81;20979;-44
2021/07/11 06:16:13;;;;;;;3.70;2.90;;;;;;;27.56;61.07;100764.34;1757019;81;20971;-44
2021/07/11 06:18:40;;;;;;;4.87;2.70;;;;;;;27.65;61.27;100760.02;1749559;80;20983;-45
2021/07/11 06:21:06;;;;;;;3.62;2.33;;;;;;;27.76;60.38;100757.28;1740708;81;21002;-44
2021/07/11 06:23:33;;;;;;;4.08;2.75;;;;;;;27.85;60.07;100756.38;1755374;81;20983;-45
2021/07/11 06:25:59;;;;;;;5.75;3.05;;;;;;;27.91;59.62;100753.20;1745873;80;20990;-44
2021/07/11 06:28:25;;;;;;;4.12;3.20;;;;;;;28.01;58.46;100749.66;1754329;80;21341;-44
2021/07/11 06:30:53;;;;;;;8.13;2.95;;;;;;;28.18;58.35;100749.56;1739414;81;21050;-49
2021/07/11 06:33:20;;;;;;;2.40;2.17;;;;;;;28.35;58.56;100746.04;1756979;81;20994;-45
2021/07/11 06:35:46;;;;;;;3.80;2.77;;;;;;;28.47;57.10;100744.93;1735988;81;20990;-46
2021/07/11 06:38:13;;;;;;;3.90;2.72;;;;;;;28.56;57.25;100747.36;1655472;85;21003;-50
2021/07/11 06:40:39;;;;;;;3.00;2.40;;;;;;;28.72;56.67;100745.81;1678493;84;21080;-45
2021/07/11 06:43:06;;;;;;;3.08;2.67;;;;;;;28.90;56.02;100740.84;1692703;84;21001;-44
2021/07/11 06:45:33;;;;;;;3.37;2.50;;;;;;;29.06;56.13;100739.92;1690053;84;20934;-45
2021/07/11 06:47:59;;;;;;;5.10;3.17;;;;;;;29.18;56.55;100740.14;1692192;83;21000;-44
2021/07/11 06:50:25;;;;;;;5.33;2.67;;;;;;;29.30;55.74;100737.52;1681681;83;21127;-44
2021/07/11 06:52:52;;;;;;;4.80;2.85;;;;;;;29.47;55.51;100737.34;1672732;84;21070;-49
2021/07/11 06:55:20;;;;;;;3.98;2.90;;;;;;;29.64;55.06;100739.34;1676433;84;21019;-44
2021/07/11 06:57:46;;;;;;;2.70;2.37;;;;;;;29.71;54.74;100742.80;1698774;83;21507;-45
2021/07/11 07:00:14;;;;;;;4.30;2.87;;;;;;;29.72;55.40;100737.34;1670168;84;21025;-44
2021/07/11 07:02:40;;;;;;;3.02;2.33;;;;;;;29.83;54.80;100741.58;1691785;84;21504;-49
2021/07/11 07:05:07;;;;;;;2.70;2.40;;;;;;;29.97;54.51;100740.95;1691646;84;21018;-50
2021/07/11 07:07:35;;;;;;;2.52;2.08;;;;;;;30.12;54.29;100736.67;1700174;83;21046;-45
2021/07/11 07:10:09;;;;;;;3.08;2.33;;;;;;;30.22;51.84;100740.09;1678004;84;21587;-44
2021/07/11 07:12:37;;;;;;;3.30;2.58;;;;;;;30.21;51.30;100737.05;1693014;84;21413;-44
2021/07/11 07:15:06;;;;;;;3.02;2.27;;;;;;;30.29;51.27;100737.86;1672236;84;20935;-44
2021/07/11 07:17:32;;;;;;;2.72;2.25;;;;;;;30.42;49.32;100739.03;1672068;84;21043;-50
2021/07/11 07:19:58;;;;;;;2.20;1.92;;;;;;;30.43;49.54;100737.20;1680066;84;21022;-49
2021/07/11 07:22:25;;;;;;;3.80;2.35;;;;;;;30.48;50.71;100743.64;1727054;82;21457;-44
2021/07/11 07:24:51;;;;;;;2.58;1.98;;;;;;;30.65;49.04;100742.75;1679667;84;20998;-49
2021/07/11 07:27:18;;;;;;;2.50;2.15;;;;;;;30.79;48.53;100746.92;1670678;85;21511;-45
2021/07/11 07:29:44;;;;;;;2.83;2.10;;;;;;;30.84;48.18;100740.88;1696277;83;21031;-50
2021/07/11 07:32:11;;;;;;;2.77;2.05;;;;;;;30.91;47.26;100742.86;1719015;83;21011;-45
2021/07/11 07:34:37;;;;;;;2.17;1.98;;;;;;;30.97;47.09;100737.58;1717680;82;20995;-49
2021/07/11 07:37:06;;;;;;;3.42;2.50;;;;;;;31.03;46.69;100740.14;1705599;84;21034;-50
2021/07/11 07:39:32;;;;;;;2.55;2.22;;;;;;;31.19;45.68;100739.03;1774419;80;21484;-50
2021/07/11 07:41:59;;;;;;;3.08;2.20;;;;;;;31.18;46.38;100735.20;1774546;80;20975;-46
2021/07/11 07:44:25;;;;;;;2.00;1.85;;;;;;;31.17;46.65;100742.88;1705802;83;21011;-50
2021/07/11 07:46:51;;;;;;;2.37;2.08;;;;;;;31.17;46.24;100736.44;1708179;83;21548;-45
2021/07/11 07:49:18;;;;;;;3.22;2.20;;;;;;;31.12;46.09;100736.27;1688287;84;21026;-45
2021/07/11 07:51:44;;;;;;;2.27;2.05;;;;;;;31.08;46.18;100735.47;1706899;84;21034;-46
2021/07/11 07:54:11;;;;;;;2.37;2.17;;;;;;;31.04;46.28;100726.25;1746565;81;20903;-49
2021/07/11 07:56:37;;;;;;;4.42;3.08;;;;;;;31.07;46.97;100725.41;1735459;82;21022;-45
2021/07/11 07:59:04;;;;;;;3.40;2.67;;;;;;;31.17;47.81;100724.53;1680391;85;21607;-44
2021/07/11 08:01:31;;;;;;;3.62;2.83;;;;;;;31.23;46.49;100725.71;1680459;84;21057;-45
2021/07/11 08:03:57;;;;;;;2.37;2.05;;;;;;;31.24;46.47;100732.95;1691370;83;20926;-46
2021/07/11 08:06:26;;;;;;;2.52;2.15;;;;;;;31.22;46.74;100733.17;1709192;83;21022;-50
2021/07/11 08:08:52;;;;;;;2.60;2.37;;;;;;;31.22;45.98;100728.32;1729468;82;20994;-49
2021/07/11 08:11:18;;;;;;;3.90;2.40;;;;;;;31.31;46.52;100736.92;1724539;83;21465;-50
2021/07/11 08:13:45;;;;;;;3.50;2.70;;;;;;;31.45;46.94;100723.55;1693674;83;21026;-49
2021/07/11 08:16:11;;;;;;;3.83;2.60;;;;;;;31.62;46.08;100726.00;1729401;82;21491;-49
2021/07/11 08:18:39;;;;;;;4.30;2.40;;;;;;;31.71;46.06;100723.50;1718603;83;21019;-50
2021/07/11 08:21:07;;;;;;;3.25;2.30;;;;;;;31.65;46.94;100726.60;1708518;83;21096;-51
2021/07/11 08:23:33;;;;;;;2.77;2.27;;;;;;;31.71;47.67;100717.05;1707012;82;21033;-45
2021/07/11 08:26:00;;;;;;;2.62;2.10;;;;;;;31.77;44.88;100724.45;1699758;83;21935;-45
2021/07/11 08:28:28;;;;;;;3.75;2.25;;;;;;;31.83;44.71;100721.38;1704640;82;21133;-50
2021/07/11 08:30:54;;;;;;;2.12;1.92;;;;;;;31.94;44.35;100715.02;1678733;84;21070;-45
2021/07/11 08:33:21;;;;;;;2.47;2.17;;;;;;;32.13;44.30;100715.83;1671352;85;21884;-45
2021/07/11 08:35:47;;;;;;;2.87;2.37;;;;;;;32.39;43.62;100714.89;1673126;84;21078;-50
2021/07/11 08:38:13;;;;;;;3.27;2.90;;;;;;;32.57;43.91;100720.38;1655724;85;21014;-50
2021/07/11 08:40:40;;;;;;;2.65;2.25;;;;;;;32.61;42.51;100718.90;1726937;82;21049;-50
2021/07/11 08:43:07;;;;;;;2.80;2.50;;;;;;;32.52;43.53;100717.41;1727584;81;21050;-45
2021/07/11 08:45:34;;;;;;;3.55;2.10;;;;;;;32.43;44.43;100710.01;1739364;81;20987;-45
2021/07/11 08:48:01;;;;;;;2.45;2.02;;;;;;;32.39;42.80;100714.89;1726696;82;21020;-50
2021/07/11 08:50:32;;;;;;;2.72;2.27;;;;;;;32.38;43.03;100714.72;1670262;84;21513;-50
2021/07/11 08:52:59;;;;;;;3.35;2.20;;;;;;;32.54;42.91;100712.13;1671389;85;21027;-45
2021/07/11 08:55:26;;;;;;;3.17;2.67;;;;;;;32.75;41.72;100715.26;1742672;81;20983;-46
2021/07/11 08:57:57;;;;;;;2.77;2.22;;;;;;;32.74;40.85;100708.60;1756762;80;20999;-50
2021/07/11 09:00:30;;;;;;;2.47;1.98;;;;;;;32.73;42.43;100714.09;1757068;80;20992;-49
2021/07/11 09:02:57;;;;;;;2.40;1.90;;;;;;;32.70;40.74;100705.84;1745690;81;21014;-50
2021/07/11 09:05:28;;;;;;;2.33;2.10;;;;;;;32.74;40.17;100710.02;1726856;81;20987;-50
2021/07/11 09:08:24;;;;;;;2.92;2.08;;;;;;;32.86;40.07;100697.33;1719717;81;20995;-50
2021/07/11 09:10:55;;;;;;;2.15;1.95;;;;;;;32.85;38.86;100707.05;1725188;82;21536;-45
2021/07/11 09:13:27;;;;;;;3.42;2.30;;;;;;;32.94;39.73;100697.42;1739837;81;20991;-46
2021/07/11 09:15:56;;;;;;;3.22;2.10;;;;;;;33.14;39.42;100694.09;1726809;83;20990;-45
2021/07/11 09:18:26;;;;;;;2.87;1.72;;;;;;;33.29;37.29;100689.61;1726733;82;20999;-50
2021/07/11 09:21:03;;;;;;;2.65;1.85;;;;;;;33.20;37.75;100688.11;1727907;81;21003;-50
2021/07/11 09:23:31;;;;;;;2.55;2.15;;;;;;;33.19;38.35;100688.56;1747293;80;20983;-45
2021/07/11 09:26:10;;;;;;;2.83;2.10;;;;;;;33.35;39.03;100692.92;1727496;83;20979;-45
2021/07/11 09:28:39;;;;;;;3.12;2.33;;;;;;;33.49;37.77;100691.09;1736098;80;21003;-50
2021/07/11 09:31:14;;;;;;;2.35;2.00;;;;;;;33.47;35.91;100686.47;1770477;81;20963;-50
2021/07/11 09:33:42;;;;;;;2.62;2.05;;;;;;;33.38;35.73;100677.92;1768489;80;21006;-50
2021/07/11 09:36:18;;;;;;;3.50;2.27;;;;;;;33.40;37.36;100679.68;1765781;81;20995;-45
2021/07/11 09:38:48;;;;;;;2.72;2.20;;;;;;;33.58;38.69;100672.92;1765926;81;21501;-46
2021/07/11 09:41:24;;;;;;;2.45;1.98;;;;;;;33.72;36.73;100679.75;1764819;81;21035;-51
2021/07/11 09:43:51;;;;;;;2.40;2.08;;;;;;;33.74;36.25;100679.33;1722375;81;21250;-45
2021/07/11 09:46:19;;;;;;;2.72;2.20;;;;;;;33.74;36.20;100675.88;1729044;81;21030;-47
2021/07/11 09:48:45;;;;;;;4.10;2.30;;;;;;;33.75;37.23;100671.80;1680004;85;21015;-50
2021/07/11 09:51:21;;;;;;;2.72;2.05;;;;;;;33.76;36.91;100670.58;1679775;85;21042;-45
2021/07/11 09:53:49;;;;;;;2.77;2.33;;;;;;;33.75;36.43;100673.20;1677552;85;21018;-45
2021/07/11 09:56:38;;;;;;;3.45;2.45;;;;;;;33.62;36.19;100670.84;1701634;83;21045;-50
2021/07/11 09:59:07;;;;;;;2.37;2.17;;;;;;;33.60;37.25;100673.30;1710827;83;21002;-50
2021/07/11 10:01:37;;;;;;;2.50;2.30;;;;;;;33.67;36.32;100666.09;1701173;83;21108;-50
2021/07/11 10:04:04;;;;;;;9.28;2.20;;;;;;;33.77;35.55;100670.74;1719704;83;21519;-46
2021/07/11 10:06:32;;;;;;;2.50;2.25;;;;;;;33.78;35.30;100662.45;1717773;83;21002;-45
2021/07/11 10:08:59;;;;;;;2.98;2.20;;;;;;;33.75;36.38;100671.00;1698115;83;21077;-45
2021/07/11 10:11:25;;;;;;;2.10;1.90;;;;;;;33.70;36.37;100668.05;1695383;83;21026;-46
2021/07/11 10:13:53;;;;;;;2.80;2.25;;;;;;;33.75;36.51;100667.55;1703891;82;21006;-50
2021/07/11 10:16:21;;;;;;;2.02;1.82;;;;;;;33.71;36.87;100657.53;1735769;82;21535;-50
2021/07/11 10:18:55;;;;;;;2.72;1.92;;;;;;;33.66;37.51;100663.70;1741064;81;20994;-47
2021/07/11 10:21:29;;;;;;;3.70;2.37;;;;;;;33.64;37.05;100668.38;1763450;81;20986;-46
2021/07/11 10:23:55;;;;;;;2.85;2.30;;;;;;;33.55;37.53;100668.92;1760274;81;21023;-46
2021/07/11 10:26:27;;;;;;;2.22;2.02;;;;;;;33.49;36.72;100659.94;1757865;81;20974;-46
2021/07/11 10:28:53;;;;;;;3.12;2.00;;;;;;;33.48;35.17;100665.40;1709731;81;21034;-50
2021/07/11 10:31:27;;;;;;;1.95;1.85;;;;;;;33.41;35.78;100660.06;1743200;81;21388;-45
2021/07/11 10:33:55;;;;;;;2.60;2.30;;;;;;;33.40;36.41;100656.23;1734304;81;21018;-45
2021/07/11 10:36:33;;;;;;;2.90;2.30;;;;;;;33.46;34.90;100659.36;1751675;80;21042;-51
2021/07/11 10:39:00;;;;;;;2.65;2.10;;;;;;;33.58;35.99;100657.34;1724989;82;21018;-45
2021/07/11 10:41:31;;;;;;;2.70;2.33;;;;;;;33.58;35.20;100658.17;1726312;81;21043;-44
2021/07/11 10:44:09;;;;;;;2.08;1.85;;;;;;;33.60;35.64;100659.13;1751861;81;20983;-51
2021/07/11 10:46:57;;;;;;;2.45;2.10;;;;;;;33.73;33.67;100657.87;1757301;81;21436;-51
2021/07/11 10:49:30;;;;;;;2.70;2.50;;;;;;;33.74;33.85;100665.95;1757391;81;21042;-45
2021/07/11 10:52:08;;;;;;;2.65;2.25;;;;;;;33.72;32.55;100657.08;1757294;81;20995;-46
2021/07/11 10:54:52;;;;;;;3.17;2.55;;;;;;;33.74;34.42;100660.28;1737496;81;21401;-50
2021/07/11 10:57:36;;;;;;;2.40;2.20;;;;;;;33.91;34.22;100666.05;1707608;83;20987;-44
2021/07/11 11:00:27;;;;;;;2.42;2.22;;;;;;;34.00;34.08;100649.24;1712542;82;21539;-50
2021/07/11 11:02:55;;;;;;;2.25;2.02;;;;;;;34.17;34.90;100652.35;1730661;81;21003;-50
2021/07/11 11:05:25;;;;;;;4.37;2.58;;;;;;;34.14;33.53;100660.32;1682477;84;20909;-45
2021/07/11 11:07:57;;;;;;;2.67;2.20;;;;;;;34.04;35.04;100652.81;1755603;81;21543;-50
2021/07/11 11:10:33;;;;;;;3.02;2.37;;;;;;;34.05;32.84;100657.23;1743835;81;20979;-50
2021/07/11 11:13:17;;;;;;;2.80;2.40;;;;;;;34.05;33.49;100648.73;1727289;82;21643;-51
2021/07/11 11:15:51;;;;;;;1.90;1.80;;;;;;;34.13;32.91;100655.91;1727321;82;20987;-50
2021/07/11 11:18:38;;;;;;;2.15;1.90;;;;;;;34.18;33.44;100658.22;1727564;82;21379;-45
2021/07/11 11:21:08;;;;;;;3.12;2.65;;;;;;;34.19;32.35;100658.39;1727016;82;21014;-50
2021/07/11 11:23:37;;;;;;;3.62;2.45;;;;;;;34.22;32.46;100650.45;1727996;82;21046;-49
2021/07/11 11:26:04;;;;;;;2.60;2.10;;;;;;;34.41;32.88;100648.01;1727046;82;21002;-47
2021/07/11 11:28:40;;;;;;;2.80;2.15;;;;;;;34.72;34.21;100651.98;1728561;81;20966;-51
2021/07/11 11:31:28;;;;;;;2.75;2.15;;;;;;;35.09;34.14;100646.45;1731398;82;20995;-45